Time;durP1;ratioP1;P1;durP2;ratioP2;P2;SDS_P1;SDS_P2;PMS_P1;PMS_P2;Temp;Humidity;BMP_temperature;BMP_pressure;BME280_temperature;BME280_humidity;BME280_pressure;Samples;Min_cycle;Max_cycle;Signal;HPM_P1;HPM_P2
2021/12/15 00:01:13;;;;;;;29.37;19.77;;;;;;;;;;4977955;28;20690;-63
2021/12/15 00:03:39;;;;;;;28.50;19.37;;;;;;;;;;4978429;28;20661;-62
2021/12/15 00:06:12;;;;;;;28.03;19.43;;;;;;;;;;4960678;28;20205;-61
2021/12/15 00:08:38;;;;;;;26.03;18.57;;;;;;;;;;4960748;28;20174;-63
2021/12/15 00:11:04;;;;;;;30.80;19.27;;;;;;;;;;4960554;28;20201;-64
2021/12/15 00:13:31;;;;;;;29.13;17.70;;;;;;;;;;4961133;28;20204;-64
2021/12/15 00:15:57;;;;;;;31.53;19.07;;;;;;;;;;4960393;28;20664;-64
2021/12/15 00:18:23;;;;;;;31.43;19.47;;;;;;;;;;4977768;28;20177;-62
2021/12/15 00:20:49;;;;;;;30.50;18.97;;;;;;;;;;4977923;28;20617;-63
2021/12/15 00:23:15;;;;;;;26.87;18.10;;;;;;;;;;4977889;28;20629;-63
2021/12/15 00:25:42;;;;;;;25.53;17.90;;;;;;;;;;4977479;28;20216;-64
2021/12/15 00:28:09;;;;;;;28.03;18.37;;;;;;;;;;4960422;28;20595;-62
2021/12/15 00:30:36;;;;;;;28.27;17.80;;;;;;;;;;4977502;28;20595;-64
2021/12/15 00:33:02;;;;;;;28.10;17.80;;;;;;;;;;4977417;28;20293;-63
2021/12/15 00:35:28;;;;;;;24.80;17.50;;;;;;;;;;4977377;28;20258;-61
2021/12/15 00:37:54;;;;;;;28.17;17.77;;;;;;;;;;4960086;28;20188;-64
2021/12/15 00:40:21;;;;;;;30.17;18.27;;;;;;;;;;4977393;28;20219;-64
2021/12/15 00:42:47;;;;;;;22.17;17.10;;;;;;;;;;4977272;28;20661;-64
2021/12/15 00:45:13;;;;;;;24.13;16.97;;;;;;;;;;4959822;28;20205;-62
2021/12/15 00:47:40;;;;;;;24.60;16.77;;;;;;;;;;4977304;28;20189;-63
2021/12/15 00:50:08;;;;;;;29.50;18.77;;;;;;;;;;4960245;28;20186;-62
2021/12/15 00:52:35;;;;;;;24.37;17.20;;;;;;;;;;4977103;28;20231;-63
2021/12/15 00:55:01;;;;;;;23.87;16.60;;;;;;;;;;4976951;28;20185;-63
2021/12/15 00:57:27;;;;;;;25.50;16.23;;;;;;;;;;4977223;28;20181;-63
2021/12/15 00:59:53;;;;;;;27.83;16.90;;;;;;;;;;4959476;28;20185;-63
2021/12/15 01:02:19;;;;;;;24.07;17.00;;;;;;;;;;4977156;28;20220;-64
2021/12/15 01:04:45;;;;;;;23.80;16.93;;;;;;;;;;4976872;28;20748;-63
2021/12/15 01:07:12;;;;;;;26.00;17.53;;;;;;;;;;4977074;28;20176;-63
2021/12/15 01:09:43;;;;;;;26.17;16.60;;;;;;;;;;4976797;28;20181;-62
2021/12/15 01:12:25;;;;;;;26.27;17.87;;;;;;;;;;4976661;28;20607;-63
2021/12/15 01:20:33;;;;;;;24.90;16.73;;;;;;;;;;4976821;28;20183;-63
2021/12/15 01:23:02;;;;;;;23.37;16.77;;;;;;;;;;4975246;28;20224;-63
2021/12/15 01:25:33;;;;;;;26.27;17.27;;;;;;;;;;4976008;28;20232;-63
2021/12/15 01:27:59;;;;;;;25.33;18.13;;;;;;;;;;4958059;28;20177;-62
2021/12/15 01:30:27;;;;;;;31.63;20.50;;;;;;;;;;4975363;28;20638;-63
2021/12/15 01:32:54;;;;;;;22.90;17.00;;;;;;;;;;4975213;28;20663;-63
2021/12/15 01:35:20;;;;;;;82.97;41.40;;;;;;;;;;4975323;28;20596;-63
2021/12/15 01:37:47;;;;;;;27.90;17.67;;;;;;;;;;4957942;28;20712;-63
2021/12/15 01:40:21;;;;;;;27.50;16.90;;;;;;;;;;4975213;28;20181;-63
2021/12/15 01:42:47;;;;;;;24.13;17.23;;;;;;;;;;4975342;28;20196;-63
2021/12/15 01:48:03;;;;;;;26.40;17.27;;;;;;;;;;4975613;28;20184;-63
2021/12/15 01:50:29;;;;;;;25.73;17.40;;;;;;;;;;4974966;28;20183;-63
2021/12/15 01:52:55;;;;;;;27.47;18.60;;;;;;;;;;4975073;28;20251;-63
2021/12/15 01:55:22;;;;;;;23.83;17.57;;;;;;;;;;4957653;28;20646;-63
2021/12/15 01:57:48;;;;;;;30.17;18.80;;;;;;;;;;4975195;28;20253;-63
2021/12/15 02:00:18;;;;;;;27.00;17.53;;;;;;;;;;4974985;28;20185;-63
2021/12/15 02:02:45;;;;;;;27.10;17.03;;;;;;;;;;4974775;28;20676;-63
2021/12/15 02:05:11;;;;;;;30.07;18.10;;;;;;;;;;4974743;28;20211;-63
2021/12/15 02:07:37;;;;;;;24.80;17.47;;;;;;;;;;4956779;28;20184;-63
2021/12/15 02:10:05;;;;;;;24.97;16.97;;;;;;;;;;4974750;28;20181;-63
2021/12/15 02:12:35;;;;;;;24.13;17.17;;;;;;;;;;4974618;28;20193;-64
2021/12/15 02:15:02;;;;;;;25.63;16.83;;;;;;;;;;4974714;28;20181;-64
2021/12/15 02:17:28;;;;;;;29.40;18.03;;;;;;;;;;4975111;28;20232;-64
2021/12/15 02:19:54;;;;;;;26.43;18.13;;;;;;;;;;4974658;28;20256;-63
2021/12/15 02:22:20;;;;;;;25.07;17.60;;;;;;;;;;4939705;28;1032143;-64
2021/12/15 02:24:50;;;;;;;29.37;18.57;;;;;;;;;;4975293;28;20684;-62
2021/12/15 02:27:16;;;;;;;28.13;18.63;;;;;;;;;;4975405;28;20204;-64
2021/12/15 02:29:44;;;;;;;29.13;18.50;;;;;;;;;;4975173;28;20185;-63
2021/12/15 02:32:34;;;;;;;26.30;17.27;;;;;;;;;;4957754;28;20201;-63
2021/12/15 02:37:45;;;;;;;28.13;17.30;;;;;;;;;;4975418;28;20227;-64
2021/12/15 02:40:13;;;;;;;27.30;17.43;;;;;;;;;;4975099;28;20185;-62
2021/12/15 02:42:41;;;;;;;30.60;19.23;;;;;;;;;;4974968;28;20255;-64
2021/12/15 02:45:08;;;;;;;26.50;17.40;;;;;;;;;;4957529;28;20205;-62
2021/12/15 02:47:35;;;;;;;27.03;18.50;;;;;;;;;;4957630;28;20638;-65
2021/12/15 02:50:02;;;;;;;26.40;17.90;;;;;;;;;;4974908;28;20634;-63
2021/12/15 02:52:28;;;;;;;25.30;18.07;;;;;;;;;;4974683;28;20205;-63
2021/12/15 02:54:54;;;;;;;29.47;18.47;;;;;;;;;;4957539;28;20192;-63
2021/12/15 02:57:20;;;;;;;27.77;18.63;;;;;;;;;;4975391;28;20185;-63
2021/12/15 03:03:25;;;;;;;24.33;17.67;;;;;;;;;;4974938;28;20205;-63
2021/12/15 03:05:34;;;;;;;29.10;19.23;;;;;;;;;;4974325;28;20219;-62
2021/12/15 03:08:17;;;;;;;26.80;18.27;;;;;;;;;;4957672;28;20200;-63
2021/12/15 03:16:16;;;;;;;28.63;18.60;;;;;;;;;;4975125;28;20188;-64
2021/12/15 03:18:42;;;;;;;26.80;18.53;;;;;;;;;;4973646;28;20630;-62
2021/12/15 03:21:13;;;;;;;26.40;18.37;;;;;;;;;;4974279;28;20217;-64
2021/12/15 03:23:44;;;;;;;31.77;19.87;;;;;;;;;;4974496;28;20236;-64
2021/12/15 03:26:12;;;;;;;29.17;19.63;;;;;;;;;;4974681;28;20193;-63
2021/12/15 03:37:03;;;;;;;32.17;19.67;;;;;;;;;;4974571;28;20181;-63
2021/12/15 03:39:28;;;;;;;33.50;19.73;;;;;;;;;;4974114;28;20728;-63
2021/12/15 03:42:04;;;;;;;30.03;19.73;;;;;;;;;;4956878;28;20288;-62
2021/12/15 03:44:32;;;;;;;32.30;20.37;;;;;;;;;;4974546;28;20291;-63
2021/12/15 03:46:59;;;;;;;34.53;21.20;;;;;;;;;;4974379;28;20185;-61
2021/12/15 03:49:25;;;;;;;34.27;20.60;;;;;;;;;;4975024;28;20351;-63
2021/12/15 03:51:51;;;;;;;35.37;20.70;;;;;;;;;;4956878;28;20204;-63
2021/12/15 03:54:17;;;;;;;30.10;20.27;;;;;;;;;;4956929;28;20181;-64
2021/12/15 03:56:44;;;;;;;32.00;20.27;;;;;;;;;;4956913;28;20255;-64
2021/12/15 03:59:11;;;;;;;43.40;21.60;;;;;;;;;;4956823;28;20655;-62
2021/12/15 04:01:37;;;;;;;36.37;21.90;;;;;;;;;;4974009;28;20220;-62
2021/12/15 04:04:03;;;;;;;35.93;22.67;;;;;;;;;;4974425;28;20186;-63
2021/12/15 04:06:32;;;;;;;36.00;22.50;;;;;;;;;;4973960;28;20662;-63
2021/12/15 04:08:58;;;;;;;34.23;20.93;;;;;;;;;;4956667;28;20633;-63
2021/12/15 04:11:25;;;;;;;35.87;22.20;;;;;;;;;;4956604;28;20201;-63
2021/12/15 04:13:52;;;;;;;34.83;21.57;;;;;;;;;;4974232;28;20182;-63
2021/12/15 04:16:43;;;;;;;37.27;22.57;;;;;;;;;;4974474;28;20177;-64
2021/12/15 04:19:11;;;;;;;36.63;21.37;;;;;;;;;;4974315;28;20174;-63
2021/12/15 04:21:38;;;;;;;35.57;22.23;;;;;;;;;;4956416;28;20629;-64
2021/12/15 04:24:05;;;;;;;36.10;22.20;;;;;;;;;;4956523;28;20336;-62
2021/12/15 04:26:31;;;;;;;39.83;22.60;;;;;;;;;;4973747;28;20208;-64
2021/12/15 04:28:57;;;;;;;36.57;22.40;;;;;;;;;;4974079;28;20173;-63
2021/12/15 04:31:26;;;;;;;36.20;22.33;;;;;;;;;;4976609;28;20251;-62
2021/12/15 04:33:57;;;;;;;35.90;21.30;;;;;;;;;;4977339;28;20178;-64
2021/12/15 04:36:25;;;;;;;35.40;22.53;;;;;;;;;;4959986;28;20220;-61
2021/12/15 04:38:51;;;;;;;38.77;21.80;;;;;;;;;;4977293;28;20209;-63
2021/12/15 04:41:19;;;;;;;36.87;22.77;;;;;;;;;;4977125;28;20272;-63
2021/12/15 04:43:48;;;;;;;32.73;21.73;;;;;;;;;;4977710;28;20189;-64
2021/12/15 04:46:15;;;;;;;36.33;20.87;;;;;;;;;;4959759;28;20205;-64
2021/12/15 04:48:41;;;;;;;38.40;22.27;;;;;;;;;;4959719;28;20240;-64
2021/12/15 04:51:08;;;;;;;41.43;22.13;;;;;;;;;;4959597;28;20547;-63
2021/12/15 04:53:34;;;;;;;39.73;22.17;;;;;;;;;;4977031;28;20177;-63
2021/12/15 04:56:00;;;;;;;37.40;21.43;;;;;;;;;;4959601;28;20185;-63
2021/12/15 04:58:26;;;;;;;33.20;21.23;;;;;;;;;;4976861;28;20271;-63
2021/12/15 05:00:54;;;;;;;38.23;23.00;;;;;;;;;;4976792;28;20260;-62
2021/12/15 05:03:20;;;;;;;36.93;22.17;;;;;;;;;;4959424;28;20649;-64
2021/12/15 05:05:46;;;;;;;36.00;22.23;;;;;;;;;;4976901;28;20296;-63
2021/12/15 05:08:12;;;;;;;32.90;20.63;;;;;;;;;;4976708;28;20276;-63
2021/12/15 05:10:38;;;;;;;33.80;20.93;;;;;;;;;;4959303;28;20287;-64
2021/12/15 05:13:05;;;;;;;34.67;21.73;;;;;;;;;;4976622;28;20193;-64
2021/12/15 05:15:31;;;;;;;38.13;21.83;;;;;;;;;;4976570;28;20189;-63
2021/12/15 05:17:57;;;;;;;35.73;21.57;;;;;;;;;;4959288;28;20189;-64
2021/12/15 05:20:24;;;;;;;33.70;21.57;;;;;;;;;;4976647;28;20185;-64
2021/12/15 05:22:51;;;;;;;37.73;21.33;;;;;;;;;;4976404;28;20212;-63
2021/12/15 05:25:17;;;;;;;36.67;23.13;;;;;;;;;;4958982;28;20303;-64
2021/12/15 05:27:43;;;;;;;33.57;21.17;;;;;;;;;;4976395;28;20248;-64
2021/12/15 05:30:11;;;;;;;34.20;21.23;;;;;;;;;;4976427;28;20185;-62
2021/12/15 05:32:37;;;;;;;29.90;20.00;;;;;;;;;;4976243;28;20205;-64
2021/12/15 05:35:03;;;;;;;30.80;20.10;;;;;;;;;;4977085;28;20274;-64
2021/12/15 05:37:30;;;;;;;34.00;21.60;;;;;;;;;;4977883;28;20185;-64
2021/12/15 05:39:56;;;;;;;31.13;19.87;;;;;;;;;;4976263;28;20217;-63
2021/12/15 05:42:23;;;;;;;34.87;20.83;;;;;;;;;;4975161;28;20204;-63
2021/12/15 05:44:50;;;;;;;30.83;20.33;;;;;;;;;;4976123;28;20232;-64
2021/12/15 05:47:16;;;;;;;29.30;20.33;;;;;;;;;;4976051;28;20195;-64
2021/12/15 05:49:42;;;;;;;33.80;21.27;;;;;;;;;;4976241;28;20177;-63
2021/12/15 05:52:09;;;;;;;33.20;20.83;;;;;;;;;;4958513;28;20244;-63
2021/12/15 05:54:35;;;;;;;31.60;20.33;;;;;;;;;;4975853;28;20177;-63
2021/12/15 05:57:01;;;;;;;33.87;20.50;;;;;;;;;;4958636;28;20181;-64
2021/12/15 05:59:27;;;;;;;35.27;21.00;;;;;;;;;;4976075;28;20181;-64
2021/12/15 06:01:53;;;;;;;34.97;20.80;;;;;;;;;;4975607;28;20193;-64
2021/12/15 06:04:20;;;;;;;33.60;21.40;;;;;;;;;;4975502;28;20707;-63
2021/12/15 06:06:46;;;;;;;32.27;20.37;;;;;;;;;;4975612;28;20277;-63
2021/12/15 06:09:12;;;;;;;36.57;20.80;;;;;;;;;;4975887;28;20173;-64
2021/12/15 06:11:39;;;;;;;29.93;20.53;;;;;;;;;;4975459;28;20200;-64
2021/12/15 06:14:06;;;;;;;31.93;21.93;;;;;;;;;;4975595;28;20177;-63
2021/12/15 06:16:33;;;;;;;31.23;20.33;;;;;;;;;;4975927;28;20185;-63
2021/12/15 06:19:00;;;;;;;31.37;19.53;;;;;;;;;;4975531;28;20638;-64
2021/12/15 06:21:26;;;;;;;31.87;19.70;;;;;;;;;;4975417;28;20243;-64
2021/12/15 06:23:52;;;;;;;30.57;19.83;;;;;;;;;;4975391;28;20185;-64
2021/12/15 06:26:19;;;;;;;30.17;20.57;;;;;;;;;;4975505;28;20231;-64
2021/12/15 06:28:45;;;;;;;36.37;21.80;;;;;;;;;;4975827;28;20181;-64
2021/12/15 06:31:13;;;;;;;37.67;21.13;;;;;;;;;;4975244;28;20251;-64
2021/12/15 06:33:39;;;;;;;36.30;22.37;;;;;;;;;;4975276;28;20177;-64
2021/12/15 06:36:06;;;;;;;34.50;22.67;;;;;;;;;;4975100;28;20192;-63
2021/12/15 06:38:34;;;;;;;40.53;25.23;;;;;;;;;;4975026;28;20707;-64
2021/12/15 06:41:00;;;;;;;77.00;43.37;;;;;;;;;;4974924;28;20189;-64
2021/12/15 06:43:26;;;;;;;44.30;27.40;;;;;;;;;;4975357;28;20192;-63
2021/12/15 06:46:07;;;;;;;37.80;23.67;;;;;;;;;;4957886;28;20228;-64
2021/12/15 06:59:32;;;;;;;41.97;28.00;;;;;;;;;;4975151;28;20176;-63
2021/12/15 07:01:58;;;;;;;42.03;28.17;;;;;;;;;;4974784;28;20312;-63
2021/12/15 07:04:24;;;;;;;33.20;22.23;;;;;;;;;;4975185;28;20181;-63
2021/12/15 07:06:51;;;;;;;34.53;22.60;;;;;;;;;;4974635;28;20177;-63
2021/12/15 07:09:17;;;;;;;32.97;21.57;;;;;;;;;;4957318;28;20185;-63
2021/12/15 07:11:43;;;;;;;33.23;21.70;;;;;;;;;;4958000;28;20205;-63
2021/12/15 07:14:09;;;;;;;32.67;21.33;;;;;;;;;;4974605;28;20630;-63
2021/12/15 07:16:41;;;;;;;33.97;21.97;;;;;;;;;;4974738;28;20224;-63
2021/12/15 07:19:15;;;;;;;30.80;21.37;;;;;;;;;;4974937;28;20164;-63
2021/12/15 07:21:51;;;;;;;37.47;23.23;;;;;;;;;;4974512;28;20216;-63
2021/12/15 07:24:17;;;;;;;35.07;22.47;;;;;;;;;;4975160;28;20255;-63
2021/12/15 07:26:43;;;;;;;35.37;20.97;;;;;;;;;;4974471;28;20573;-64
2021/12/15 07:29:09;;;;;;;34.57;22.93;;;;;;;;;;4975173;28;20188;-64
2021/12/15 07:31:36;;;;;;;35.13;21.13;;;;;;;;;;4956997;28;20204;-64
2021/12/15 07:34:02;;;;;;;32.87;21.27;;;;;;;;;;4974456;28;20261;-64
2021/12/15 07:36:28;;;;;;;35.53;22.37;;;;;;;;;;4974760;28;20189;-64
2021/12/15 07:38:55;;;;;;;34.63;21.13;;;;;;;;;;4974157;28;20192;-64
2021/12/15 07:41:32;;;;;;;31.40;20.40;;;;;;;;;;4974054;28;20252;-64
2021/12/15 07:43:59;;;;;;;32.33;20.27;;;;;;;;;;4974374;28;20199;-63
2021/12/15 07:46:26;;;;;;;38.47;22.93;;;;;;;;;;4974124;28;20232;-63
2021/12/15 07:48:52;;;;;;;34.67;22.53;;;;;;;;;;4957039;28;20186;-63
2021/12/15 07:51:17;;;;;;;35.07;22.33;;;;;;;;;;4974282;28;20275;-62
2021/12/15 07:53:44;;;;;;;37.70;22.90;;;;;;;;;;4956966;28;20231;-63
2021/12/15 07:56:11;;;;;;;35.33;21.30;;;;;;;;;;4974389;28;20215;-63
2021/12/15 07:58:37;;;;;;;33.47;22.53;;;;;;;;;;4974184;28;20642;-63
2021/12/15 08:01:05;;;;;;;35.63;22.57;;;;;;;;;;4974332;28;20184;-62
2021/12/15 08:03:32;;;;;;;38.23;22.80;;;;;;;;;;4956901;28;20649;-64
2021/12/15 08:05:59;;;;;;;35.63;22.63;;;;;;;;;;4976780;28;20197;-62
2021/12/15 08:08:25;;;;;;;32.90;21.57;;;;;;;;;;4978073;28;20599;-62
2021/12/15 08:10:56;;;;;;;37.13;23.77;;;;;;;;;;4960515;28;20185;-62
2021/12/15 08:13:22;;;;;;;35.40;22.37;;;;;;;;;;4960515;28;20172;-63
2021/12/15 08:15:48;;;;;;;36.63;23.33;;;;;;;;;;4978192;28;20181;-63
2021/12/15 08:18:14;;;;;;;34.33;22.20;;;;;;;;;;4960325;28;20711;-63
2021/12/15 08:20:41;;;;;;;37.07;23.90;;;;;;;;;;4977496;28;20188;-62
2021/12/15 08:23:07;;;;;;;33.23;21.90;;;;;;;;;;4960733;28;20205;-63
2021/12/15 08:25:35;;;;;;;48.80;31.10;;;;;;;;;;4977617;28;20197;-63
2021/12/15 08:28:01;;;;;;;37.43;25.67;;;;;;;;;;4977479;28;20174;-62
2021/12/15 08:30:29;;;;;;;37.43;24.07;;;;;;;;;;4977424;28;20178;-64
2021/12/15 08:32:56;;;;;;;34.47;23.13;;;;;;;;;;4977513;28;20678;-64
2021/12/15 08:35:25;;;;;;;33.33;22.90;;;;;;;;;;4977896;28;20641;-64
2021/12/15 08:37:51;;;;;;;33.80;23.30;;;;;;;;;;4977326;28;20312;-63
2021/12/15 08:40:19;;;;;;;37.53;23.70;;;;;;;;;;4959909;28;20282;-63
2021/12/15 08:42:45;;;;;;;51.23;34.83;;;;;;;;;;4977132;28;20197;-63
2021/12/15 08:45:11;;;;;;;37.40;26.33;;;;;;;;;;4977124;28;20193;-63
2021/12/15 08:47:37;;;;;;;36.97;26.23;;;;;;;;;;4959636;28;20189;-63
2021/12/15 08:50:06;;;;;;;38.20;27.73;;;;;;;;;;4959617;28;20190;-63
2021/12/15 08:52:32;;;;;;;92.80;59.37;;;;;;;;;;4976868;28;20240;-64
2021/12/15 08:54:58;;;;;;;52.80;34.97;;;;;;;;;;4976935;28;20189;-63
2021/12/15 08:57:24;;;;;;;47.77;33.20;;;;;;;;;;4977219;28;20260;-64
2021/12/15 08:59:50;;;;;;;38.77;27.67;;;;;;;;;;4976850;28;20196;-64
2021/12/15 09:02:16;;;;;;;37.60;24.63;;;;;;;;;;4977016;28;20209;-63
2021/12/15 09:04:42;;;;;;;40.20;26.27;;;;;;;;;;4977029;28;20213;-64
2021/12/15 09:07:08;;;;;;;36.37;24.77;;;;;;;;;;4976826;28;20182;-64
2021/12/15 09:09:34;;;;;;;34.80;24.10;;;;;;;;;;4976849;28;20177;-63
2021/12/15 09:12:00;;;;;;;33.27;23.23;;;;;;;;;;4959116;28;20684;-63
2021/12/15 09:14:26;;;;;;;36.30;24.17;;;;;;;;;;4959473;28;20690;-63
2021/12/15 09:16:54;;;;;;;33.93;22.47;;;;;;;;;;4975159;28;20208;-63
2021/12/15 09:19:20;;;;;;;35.43;23.63;;;;;;;;;;4976550;28;20181;-63
2021/12/15 09:21:46;;;;;;;34.57;22.23;;;;;;;;;;4958829;28;20220;-63
2021/12/15 09:24:13;;;;;;;36.10;23.83;;;;;;;;;;5007227;23;20231;-60
2021/12/15 09:26:39;;;;;;;33.87;22.67;;;;;;;;;;5016393;28;20199;-61
2021/12/15 09:29:06;;;;;;;33.33;22.87;;;;;;;;;;5014953;28;20180;-60
2021/12/15 09:31:32;;;;;;;34.80;24.07;;;;;;;;;;5015031;28;20188;-61
2021/12/15 09:34:02;;;;;;;37.10;24.13;;;;;;;;;;5015033;28;20286;-61
2021/12/15 09:36:28;;;;;;;34.63;22.10;;;;;;;;;;5017358;28;20183;-61
2021/12/15 09:38:57;;;;;;;37.07;23.53;;;;;;;;;;5015616;28;20179;-61
2021/12/15 09:41:23;;;;;;;37.93;24.53;;;;;;;;;;5015649;28;20219;-61
2021/12/15 09:43:52;;;;;;;38.80;25.27;;;;;;;;;;5014241;28;20200;-61
2021/12/15 09:46:41;;;;;;;39.77;25.00;;;;;;;;;;5014103;28;20657;-61
2021/12/15 09:57:28;;;;;;;33.90;23.57;;;;;;;;;;5015671;28;20690;-61
2021/12/15 10:02:49;;;;;;;37.77;25.53;;;;;;;;;;5015759;28;20226;-60
2021/12/15 10:10:47;;;;;;;33.87;22.53;;;;;;;;;;5016529;28;20171;-61
2021/12/15 10:18:54;;;;;;;32.40;21.43;;;;;;;;;;5032791;28;20183;-61
2021/12/15 10:21:26;;;;;;;36.13;21.83;;;;;;;;;;5032770;28;20259;-61
2021/12/15 10:23:52;;;;;;;33.10;22.50;;;;;;;;;;5031930;28;20229;-62
2021/12/15 10:26:19;;;;;;;34.27;21.60;;;;;;;;;;5032286;28;20210;-61
2021/12/15 10:28:49;;;;;;;35.20;22.47;;;;;;;;;;5031686;28;20239;-63
2021/12/15 10:31:16;;;;;;;31.83;21.77;;;;;;;;;;5033068;28;20640;-61
2021/12/15 10:33:43;;;;;;;32.53;22.93;;;;;;;;;;5031814;28;20223;-61
2021/12/15 10:36:14;;;;;;;34.07;22.07;;;;;;;;;;5032115;28;20176;-62
2021/12/15 10:38:45;;;;;;;32.63;21.20;;;;;;;;;;5032637;28;20232;-61
2021/12/15 10:41:14;;;;;;;34.13;23.40;;;;;;;;;;5031645;28;20186;-61
2021/12/15 10:43:47;;;;;;;36.37;24.50;;;;;;;;;;5031373;28;20226;-62
2021/12/15 10:46:15;;;;;;;35.60;22.37;;;;;;;;;;5030029;28;20218;-61
2021/12/15 10:48:44;;;;;;;34.47;21.13;;;;;;;;;;5028579;28;20176;-61
2021/12/15 10:51:21;;;;;;;33.53;21.23;;;;;;;;;;5022594;28;20199;-61
2021/12/15 10:53:48;;;;;;;32.20;20.83;;;;;;;;;;5017575;28;20195;-62
2021/12/15 10:56:15;;;;;;;32.00;20.30;;;;;;;;;;5016717;28;20559;-61
2021/12/15 10:58:45;;;;;;;32.03;21.63;;;;;;;;;;5016253;28;20222;-60
2021/12/15 11:01:32;;;;;;;35.40;23.33;;;;;;;;;;5015271;28;20176;-61
2021/12/15 11:04:00;;;;;;;32.57;21.87;;;;;;;;;;5016326;28;20230;-61
2021/12/15 11:06:32;;;;;;;34.00;20.43;;;;;;;;;;5015210;28;20590;-61
2021/12/15 11:09:12;;;;;;;31.10;21.10;;;;;;;;;;5015111;28;20183;-61
2021/12/15 11:11:38;;;;;;;31.63;21.67;;;;;;;;;;5014737;28;20179;-61
2021/12/15 11:14:23;;;;;;;30.30;20.77;;;;;;;;;;5016490;28;20270;-62
2021/12/15 11:17:02;;;;;;;31.33;19.90;;;;;;;;;;5014661;28;20183;-62
2021/12/15 11:19:38;;;;;;;31.73;20.03;;;;;;;;;;5014795;28;20182;-61
2021/12/15 11:22:24;;;;;;;32.03;20.20;;;;;;;;;;5016532;28;20191;-61
2021/12/15 11:24:50;;;;;;;28.67;19.60;;;;;;;;;;5016070;28;20226;-63
2021/12/15 11:27:18;;;;;;;30.07;20.50;;;;;;;;;;5015877;28;20187;-61
2021/12/15 11:29:44;;;;;;;34.23;21.47;;;;;;;;;;5014618;28;20176;-61
2021/12/15 11:32:29;;;;;;;28.93;21.27;;;;;;;;;;5015701;28;20183;-60
2021/12/15 11:35:03;;;;;;;32.27;20.00;;;;;;;;;;5015945;28;20290;-60
2021/12/15 11:37:44;;;;;;;29.80;19.90;;;;;;;;;;5015479;28;20188;-60
2021/12/15 11:40:10;;;;;;;30.73;19.50;;;;;;;;;;5016785;28;20186;-61
2021/12/15 11:42:40;;;;;;;32.10;22.03;;;;;;;;;;5018688;28;20183;-60
2021/12/15 11:45:08;;;;;;;35.00;22.07;;;;;;;;;;5018196;28;20207;-61
2021/12/15 11:47:34;;;;;;;33.70;21.77;;;;;;;;;;5017975;28;20199;-61
2021/12/15 11:50:13;;;;;;;35.47;21.03;;;;;;;;;;5020039;28;20176;-61
2021/12/15 11:52:44;;;;;;;36.60;21.70;;;;;;;;;;5019402;28;20190;-60
2021/12/15 11:55:24;;;;;;;32.63;21.77;;;;;;;;;;5020947;28;20175;-61
2021/12/15 11:57:50;;;;;;;34.97;22.43;;;;;;;;;;5019883;28;20230;-61
2021/12/15 12:00:18;;;;;;;33.27;22.73;;;;;;;;;;5021911;28;20179;-61
2021/12/15 12:02:51;;;;;;;36.23;23.10;;;;;;;;;;5020595;28;20249;-61
2021/12/15 12:05:19;;;;;;;39.80;24.63;;;;;;;;;;5018970;28;20200;-61
2021/12/15 12:07:54;;;;;;;35.87;23.80;;;;;;;;;;5022451;28;20180;-61
2021/12/15 12:10:25;;;;;;;39.10;23.83;;;;;;;;;;5022634;28;20643;-61
2021/12/15 12:12:56;;;;;;;35.00;22.80;;;;;;;;;;5021839;28;20569;-61
2021/12/15 12:15:27;;;;;;;34.50;23.07;;;;;;;;;;5021344;28;20172;-60
2021/12/15 12:17:56;;;;;;;37.10;23.70;;;;;;;;;;5019582;28;20538;-62
2021/12/15 12:20:24;;;;;;;35.43;22.40;;;;;;;;;;5016423;28;20180;-61
2021/12/15 12:22:50;;;;;;;42.90;26.80;;;;;;;;;;5018063;28;20187;-61
2021/12/15 12:25:20;;;;;;;37.07;24.17;;;;;;;;;;5018241;28;20231;-61
2021/12/15 12:27:47;;;;;;;34.57;23.83;;;;;;;;;;5018455;28;20172;-61
2021/12/15 12:30:18;;;;;;;45.40;29.47;;;;;;;;;;5019169;28;20172;-63
2021/12/15 12:32:45;;;;;;;37.33;24.27;;;;;;;;;;5019607;28;20160;-61
2021/12/15 12:35:12;;;;;;;40.10;24.90;;;;;;;;;;5021091;28;20204;-60
2021/12/15 12:37:39;;;;;;;39.43;26.03;;;;;;;;;;5019691;28;20206;-60
2021/12/15 12:40:22;;;;;;;35.07;23.40;;;;;;;;;;5020716;28;20186;-61
2021/12/15 12:42:49;;;;;;;39.73;25.50;;;;;;;;;;5020153;28;20184;-62
2021/12/15 12:45:23;;;;;;;41.63;24.53;;;;;;;;;;5021137;28;20207;-61
2021/12/15 12:59:44;;;;;;;40.07;24.10;;;;;;;;;;5017055;28;20259;-61
2021/12/15 13:02:31;;;;;;;40.73;24.30;;;;;;;;;;5021245;28;20196;-62
2021/12/15 13:04:57;;;;;;;51.50;29.33;;;;;;;;;;5028725;28;20214;-62
2021/12/15 13:07:42;;;;;;;43.10;25.90;;;;;;;;;;5026438;28;20659;-63
2021/12/15 13:10:08;;;;;;;44.63;26.80;;;;;;;;;;5022346;28;20651;-61
2021/12/15 13:12:39;;;;;;;44.93;26.37;;;;;;;;;;5025442;28;20203;-62
2021/12/15 13:15:08;;;;;;;36.53;22.13;;;;;;;;;;5016646;28;20603;-62
2021/12/15 13:17:37;;;;;;;39.63;24.70;;;;;;;;;;5014820;28;20190;-63
2021/12/15 13:20:04;;;;;;;38.27;22.90;;;;;;;;;;5016435;28;20247;-62
2021/12/15 13:30:49;;;;;;;40.77;23.60;;;;;;;;;;5016236;28;20540;-62
2021/12/15 13:33:17;;;;;;;45.00;25.70;;;;;;;;;;5015821;28;20191;-61
2021/12/15 13:35:49;;;;;;;44.73;27.77;;;;;;;;;;5015965;28;20709;-62
2021/12/15 13:38:19;;;;;;;40.13;23.20;;;;;;;;;;5015793;28;20180;-62
2021/12/15 13:40:53;;;;;;;43.47;25.17;;;;;;;;;;5015822;28;20187;-62
2021/12/15 13:43:37;;;;;;;41.50;25.50;;;;;;;;;;5015545;28;20202;-62
2021/12/15 13:46:05;;;;;;;45.07;25.87;;;;;;;;;;5015496;28;20579;-62
2021/12/15 13:48:57;;;;;;;39.33;24.50;;;;;;;;;;5016054;28;20255;-62
2021/12/15 13:51:41;;;;;;;43.80;26.13;;;;;;;;;;4999975;28;20674;-62
2021/12/15 13:54:20;;;;;;;41.73;27.17;;;;;;;;;;5015388;28;20290;-62
2021/12/15 13:56:47;;;;;;;46.73;26.73;;;;;;;;;;5014109;28;20179;-63
2021/12/15 13:59:28;;;;;;;58.27;36.90;;;;;;;;;;5015651;28;20214;-62
2021/12/15 14:02:21;;;;;;;36.60;23.53;;;;;;;;;;5015559;28;20230;-62
2021/12/15 14:04:47;;;;;;;49.73;31.43;;;;;;;;;;5011930;28;20219;-62
2021/12/15 14:07:28;;;;;;;43.10;27.40;;;;;;;;;;5021442;28;20183;-63
2021/12/15 14:10:18;;;;;;;42.23;25.80;;;;;;;;;;5026975;28;20248;-63
2021/12/15 14:12:47;;;;;;;39.83;25.47;;;;;;;;;;5027562;28;20176;-63
2021/12/15 14:15:13;;;;;;;41.30;25.77;;;;;;;;;;5023377;28;20561;-62
2021/12/15 14:17:39;;;;;;;41.97;25.67;;;;;;;;;;5015366;28;20187;-62
2021/12/15 14:20:13;;;;;;;38.67;24.83;;;;;;;;;;5015182;28;20176;-62
2021/12/15 14:22:41;;;;;;;44.57;29.07;;;;;;;;;;5015148;28;20182;-62
2021/12/15 14:25:07;;;;;;;41.27;27.23;;;;;;;;;;5014599;28;20286;-62
2021/12/15 14:27:33;;;;;;;46.13;28.33;;;;;;;;;;5014830;28;20230;-61
2021/12/15 14:29:59;;;;;;;44.47;28.80;;;;;;;;;;5015004;28;20594;-62
2021/12/15 14:32:26;;;;;;;47.17;27.60;;;;;;;;;;5014785;28;20683;-62
2021/12/15 14:34:53;;;;;;;43.23;26.13;;;;;;;;;;5013459;28;20202;-62
2021/12/15 14:37:20;;;;;;;41.70;26.27;;;;;;;;;;5014708;28;20655;-62
2021/12/15 14:39:48;;;;;;;53.87;31.00;;;;;;;;;;5014611;28;20180;-62
2021/12/15 14:42:15;;;;;;;49.07;32.53;;;;;;;;;;5014505;28;20678;-62
2021/12/15 14:44:43;;;;;;;45.87;27.23;;;;;;;;;;5014647;28;20195;-62
2021/12/15 14:47:14;;;;;;;44.00;29.00;;;;;;;;;;5013172;28;20528;-62
2021/12/15 14:49:42;;;;;;;44.67;28.90;;;;;;;;;;5014883;28;20160;-62
2021/12/15 14:52:11;;;;;;;42.90;27.43;;;;;;;;;;5014819;28;20233;-62
2021/12/15 14:54:38;;;;;;;41.07;27.00;;;;;;;;;;5014383;28;20707;-62
2021/12/15 14:57:08;;;;;;;43.87;26.33;;;;;;;;;;5013265;28;20182;-61
2021/12/15 14:59:39;;;;;;;36.87;24.83;;;;;;;;;;5015008;28;20172;-62
2021/12/15 15:02:05;;;;;;;44.83;28.57;;;;;;;;;;5014740;28;20176;-61
2021/12/15 15:04:31;;;;;;;41.70;26.57;;;;;;;;;;5014204;28;20199;-62
2021/12/15 15:07:01;;;;;;;43.77;28.77;;;;;;;;;;5014365;28;20307;-62
2021/12/15 15:09:31;;;;;;;42.47;27.83;;;;;;;;;;5014303;28;20163;-61
2021/12/15 15:12:00;;;;;;;37.97;26.87;;;;;;;;;;5014361;28;20210;-62
2021/12/15 15:14:38;;;;;;;43.97;27.60;;;;;;;;;;5014276;28;20729;-61
2021/12/15 15:17:06;;;;;;;43.30;26.73;;;;;;;;;;5014198;28;20226;-62
2021/12/15 15:19:39;;;;;;;46.27;31.33;;;;;;;;;;5014600;28;20180;-62
2021/12/15 15:22:05;;;;;;;42.77;28.17;;;;;;;;;;5014583;28;20199;-62
2021/12/15 15:24:33;;;;;;;42.53;28.73;;;;;;;;;;5013755;28;20251;-62
2021/12/15 15:27:02;;;;;;;40.13;28.07;;;;;;;;;;5012801;28;20207;-62
2021/12/15 15:29:32;;;;;;;40.87;27.67;;;;;;;;;;5014398;28;20596;-62
2021/12/15 15:32:05;;;;;;;41.87;27.57;;;;;;;;;;5013100;28;20556;-62
2021/12/15 15:34:31;;;;;;;39.07;26.17;;;;;;;;;;5014092;28;20695;-63
2021/12/15 15:36:57;;;;;;;43.80;28.77;;;;;;;;;;5014273;28;20191;-62
2021/12/15 15:39:23;;;;;;;46.13;28.73;;;;;;;;;;5014480;28;20337;-62
2021/12/15 15:41:50;;;;;;;41.93;28.87;;;;;;;;;;5014546;28;20180;-62
2021/12/15 15:44:17;;;;;;;41.83;26.90;;;;;;;;;;5013742;28;20577;-63
2021/12/15 15:46:44;;;;;;;40.00;27.30;;;;;;;;;;5012499;28;20210;-62